Time;durP1;ratioP1;P1;durP2;ratioP2;P2;SDS_P1;SDS_P2;PMS_P1;PMS_P2;Temp;Humidity;BMP_temperature;BMP_pressure;BME280_temperature;BME280_humidity;BME280_pressure;Samples;Min_cycle;Max_cycle;Signal;HPM_P1;HPM_P2
2022/11/04 00:01:40;;;;;;;4.20;1.43;;;11.50;97.40;;;;;;5099045;28;20473;-46
2022/11/04 00:04:06;;;;;;;1.60;1.20;;;11.50;97.50;;;;;;5081885;28;20403;-45
2022/11/04 00:06:31;;;;;;;1.50;1.10;;;11.50;97.50;;;;;;5099223;28;20445;-45
2022/11/04 00:08:57;;;;;;;2.03;1.20;;;11.50;97.40;;;;;;5098286;28;20425;-43
2022/11/04 00:14:09;;;;;;;2.17;1.57;;;11.50;97.40;;;;;;5099563;28;20413;-46
2022/11/04 00:19:19;;;;;;;1.63;1.30;;;11.40;97.30;;;;;;5099029;28;20406;-44
2022/11/04 00:29:39;;;;;;;1.40;1.03;;;11.40;97.40;;;;;;5099038;28;20184;-45
2022/11/04 00:34:48;;;;;;;1.60;1.03;;;11.40;97.40;;;;;;5099164;28;20197;-47
2022/11/04 00:37:14;;;;;;;1.93;1.30;;;11.40;97.40;;;;;;5098995;28;20739;-46
2022/11/04 00:39:40;;;;;;;2.00;1.43;;;11.40;97.40;;;;;;5099494;28;20179;-46
2022/11/04 00:42:05;;;;;;;1.90;1.30;;;11.40;97.40;;;;;;5098751;28;20603;-47
2022/11/04 00:44:31;;;;;;;3.50;1.70;;;11.40;97.50;;;;;;5099005;28;20186;-44
2022/11/04 00:46:56;;;;;;;3.17;2.47;;;11.40;97.50;;;;;;5099441;28;20187;-44
2022/11/04 00:49:22;;;;;;;3.40;2.83;;;11.40;97.50;;;;;;5099369;28;20203;-48
2022/11/04 00:51:48;;;;;;;7.10;4.10;;;11.30;97.50;;;;;;5098510;28;20533;-44
2022/11/04 00:54:13;;;;;;;5.40;3.20;;;11.40;97.60;;;;;;5098159;28;20296;-47
2022/11/04 00:56:39;;;;;;;5.77;3.37;;;11.30;97.60;;;;;;5096474;28;20679;-48
2022/11/04 00:59:05;;;;;;;4.33;3.33;;;11.30;97.70;;;;;;5098313;28;20250;-47
2022/11/04 01:01:31;;;;;;;5.30;3.47;;;11.40;97.80;;;;;;5098152;28;20423;-47
2022/11/04 01:03:58;;;;;;;4.17;3.20;;;11.40;97.80;;;;;;5097386;28;20456;-44
2022/11/04 01:06:25;;;;;;;6.00;3.70;;;11.30;97.80;;;;;;5096111;28;20470;-46
2022/11/04 01:08:58;;;;;;;6.70;3.70;;;11.40;97.90;;;;;;5078405;28;20188;-46
2022/11/04 01:11:25;;;;;;;7.43;4.10;;;11.30;97.80;;;;;;5097347;28;20459;-47
2022/11/04 01:13:51;;;;;;;4.47;2.97;;;11.30;97.80;;;;;;5097457;28;20418;-45
2022/11/04 01:16:17;;;;;;;2.80;1.80;;;11.30;97.80;;;;;;5098040;28;20418;-44
2022/11/04 01:18:43;;;;;;;2.70;1.73;;;11.30;97.80;;;;;;5098088;28;20870;-45
2022/11/04 01:21:12;;;;;;;2.70;1.80;;;11.30;97.80;;;;;;5098387;28;20880;-46
2022/11/04 01:23:38;;;;;;;1.90;1.33;;;11.30;97.90;;;;;;5096377;28;20478;-47
2022/11/04 01:26:05;;;;;;;3.70;1.40;;;11.30;97.90;;;;;;5098516;28;20513;-46
2022/11/04 01:28:31;;;;;;;1.93;1.30;;;11.30;97.90;;;;;;5098155;28;20875;-44
2022/11/04 01:30:56;;;;;;;1.70;1.30;;;11.30;97.90;;;;;;5097734;28;20447;-45
2022/11/04 01:33:23;;;;;;;1.77;1.10;;;11.20;97.80;;;;;;5097514;28;20618;-48
2022/11/04 01:35:49;;;;;;;1.60;1.37;;;11.20;97.80;;;;;;5097790;28;20255;-45
2022/11/04 01:38:15;;;;;;;2.37;1.13;;;11.20;97.80;;;;;;5097984;28;20517;-45
2022/11/04 01:40:41;;;;;;;1.43;1.20;;;11.20;97.80;;;;;;5098233;28;20531;-45
2022/11/04 01:43:15;;;;;;;1.90;1.20;;;11.20;97.70;;;;;;5097262;28;20864;-44
2022/11/04 01:45:47;;;;;;;1.87;1.10;;;11.20;97.60;;;;;;5078477;28;20181;-45
2022/11/04 01:48:21;;;;;;;1.27;0.97;;;11.20;97.60;;;;;;5079536;28;20445;-44
2022/11/04 01:50:47;;;;;;;2.13;1.30;;;11.20;97.60;;;;;;5097162;28;20538;-45
2022/11/04 01:53:21;;;;;;;1.67;0.93;;;11.20;97.50;;;;;;5079623;28;20424;-42
2022/11/04 01:55:51;;;;;;;1.90;1.03;;;11.20;97.40;;;;;;5078831;28;20483;-45
2022/11/04 01:58:20;;;;;;;1.70;1.10;;;11.20;97.30;;;;;;5096602;28;20547;-42
2022/11/04 02:00:46;;;;;;;1.83;0.97;;;11.10;97.20;;;;;;5096474;28;20699;-44
2022/11/04 02:03:19;;;;;;;1.30;0.83;;;11.10;97.10;;;;;;5078386;28;20557;-43
2022/11/04 02:05:45;;;;;;;1.40;0.90;;;11.10;97.00;;;;;;5096164;28;20538;-44
2022/11/04 02:08:11;;;;;;;1.63;0.80;;;11.10;96.90;;;;;;5096665;28;20477;-47
2022/11/04 02:10:39;;;;;;;1.87;0.80;;;11.10;96.80;;;;;;5097298;28;20417;-44
2022/11/04 02:13:05;;;;;;;1.30;0.80;;;11.10;96.70;;;;;;5097888;28;20458;-45
2022/11/04 02:15:49;;;;;;;1.40;0.80;;;11.10;96.60;;;;;;5097242;28;20706;-47
2022/11/04 02:18:24;;;;;;;1.93;0.70;;;11.00;96.50;;;;;;5097934;28;20186;-47
2022/11/04 02:21:17;;;;;;;2.17;1.10;;;11.00;96.50;;;;;;5099946;28;20427;-44
2022/11/04 02:23:57;;;;;;;1.10;0.70;;;11.00;96.50;;;;;;5101413;28;20418;-43
2022/11/04 02:26:29;;;;;;;1.80;1.00;;;11.00;96.50;;;;;;5101771;28;20431;-44
2022/11/04 02:29:16;;;;;;;1.10;0.70;;;11.00;96.60;;;;;;5101527;28;20417;-45
2022/11/04 02:32:03;;;;;;;1.37;0.90;;;11.00;96.60;;;;;;5102309;28;20841;-45
2022/11/04 02:34:42;;;;;;;1.10;0.70;;;11.00;96.60;;;;;;5101410;28;20468;-43
2022/11/04 02:37:10;;;;;;;2.83;1.17;;;10.90;96.60;;;;;;5101901;28;20425;-43
2022/11/04 02:39:55;;;;;;;1.47;1.00;;;10.90;96.60;;;;;;5101216;28;20709;-45
2022/11/04 02:42:40;;;;;;;1.70;1.10;;;10.90;96.60;;;;;;5099607;28;20919;-44
2022/11/04 02:45:21;;;;;;;1.10;0.80;;;10.90;96.60;;;;;;5100601;28;20817;-44
2022/11/04 02:48:21;;;;;;;1.27;0.83;;;10.90;96.60;;;;;;5101296;28;20425;-43
2022/11/04 02:51:04;;;;;;;1.73;0.93;;;10.90;96.50;;;;;;5057693;28;20426;-43
2022/11/04 02:53:36;;;;;;;1.67;0.90;;;10.80;96.40;;;;;;5083463;28;20425;-46
2022/11/04 02:56:03;;;;;;;1.10;0.70;;;10.80;96.30;;;;;;5101020;28;20488;-44
2022/11/04 02:58:40;;;;;;;2.43;1.30;;;10.80;96.30;;;;;;5082955;28;20482;-44
2022/11/04 03:01:07;;;;;;;1.57;0.90;;;10.80;96.20;;;;;;5082200;28;20490;-45
2022/11/04 03:03:44;;;;;;;2.13;0.80;;;10.80;96.00;;;;;;5100558;28;20477;-44
2022/11/04 03:06:13;;;;;;;1.10;0.70;;;10.70;95.80;;;;;;5101069;28;20422;-45
2022/11/04 03:08:42;;;;;;;1.10;0.50;;;10.70;95.60;;;;;;5100171;28;20520;-46
2022/11/04 03:11:14;;;;;;;2.03;0.77;;;10.70;95.50;;;;;;5082733;28;20493;-43
2022/11/04 03:13:39;;;;;;;1.30;0.90;;;10.70;95.40;;;;;;5083148;28;20479;-43
2022/11/04 03:16:09;;;;;;;1.50;0.90;;;10.60;95.30;;;;;;5082713;28;20420;-43
2022/11/04 03:18:43;;;;;;;1.13;0.70;;;10.60;95.20;;;;;;5098586;28;20177;-45
2022/11/04 03:21:11;;;;;;;1.40;0.80;;;10.60;95.00;;;;;;5082681;28;20779;-43
2022/11/04 03:23:37;;;;;;;1.10;0.67;;;10.60;94.90;;;;;;5082227;28;20502;-43
2022/11/04 03:26:17;;;;;;;1.10;0.60;;;10.50;94.80;;;;;;5082153;28;20445;-46
2022/11/04 03:29:06;;;;;;;2.17;0.97;;;10.60;94.80;;;;;;5082771;28;20671;-45
2022/11/04 03:31:57;;;;;;;2.53;0.83;;;10.50;94.80;;;;;;5087753;28;20425;-43
2022/11/04 03:34:23;;;;;;;1.87;1.10;;;10.50;94.80;;;;;;5081792;28;20426;-45
2022/11/04 03:36:48;;;;;;;1.60;0.70;;;10.50;94.80;;;;;;5099795;28;20403;-44
2022/11/04 03:39:14;;;;;;;1.67;0.73;;;10.50;94.80;;;;;;5098346;28;20414;-43
2022/11/04 03:41:46;;;;;;;1.27;0.63;;;10.50;94.80;;;;;;5098155;28;20169;-44
2022/11/04 03:44:12;;;;;;;2.27;1.00;;;10.50;94.70;;;;;;5099815;28;20191;-43
2022/11/04 03:46:39;;;;;;;3.23;0.93;;;10.50;94.70;;;;;;5099247;28;20399;-46
2022/11/04 03:49:05;;;;;;;1.43;0.97;;;10.40;94.70;;;;;;5079985;28;20190;-44
2022/11/04 03:51:31;;;;;;;3.83;1.23;;;10.40;94.70;;;;;;5080106;28;20707;-44
2022/11/04 03:53:57;;;;;;;3.87;1.00;;;10.40;94.70;;;;;;5096423;28;20426;-48
2022/11/04 03:56:43;;;;;;;3.10;1.00;;;10.40;94.80;;;;;;5097632;28;20196;-47
2022/11/04 03:59:42;;;;;;;1.80;1.10;;;10.40;94.80;;;;;;5080632;28;20797;-45
2022/11/04 04:02:22;;;;;;;1.30;0.90;;;10.40;94.80;;;;;;5097807;28;20742;-43
2022/11/04 04:04:52;;;;;;;1.70;0.67;;;10.40;94.80;;;;;;5097764;28;20496;-45
2022/11/04 04:07:39;;;;;;;1.67;0.93;;;10.40;94.80;;;;;;5079695;28;20464;-44
2022/11/04 04:10:39;;;;;;;1.60;0.80;;;10.30;94.80;;;;;;5097526;28;20407;-43
2022/11/04 04:13:17;;;;;;;2.27;0.80;;;10.30;94.80;;;;;;5082935;28;20622;-46
2022/11/04 04:16:10;;;;;;;2.20;1.10;;;10.30;94.80;;;;;;5099152;28;20410;-44
2022/11/04 04:18:47;;;;;;;7.23;0.93;;;10.30;94.90;;;;;;5094777;28;20591;-42
2022/11/04 04:21:16;;;;;;;2.50;0.97;;;10.30;95.00;;;;;;5098431;28;20414;-43
2022/11/04 04:29:13;;;;;;;1.83;0.97;;;10.30;95.10;;;;;;5083295;28;20418;-46
2022/11/04 04:31:48;;;;;;;1.93;0.97;;;10.20;95.10;;;;;;5064170;28;20424;-45
2022/11/04 04:34:19;;;;;;;1.70;0.90;;;10.20;95.10;;;;;;5081668;28;20430;-43
2022/11/04 04:36:48;;;;;;;1.80;1.30;;;10.20;95.10;;;;;;5098474;28;20519;-45
2022/11/04 04:45:03;;;;;;;1.43;0.83;;;10.10;95.10;;;;;;5097832;28;20413;-43
2022/11/04 04:47:42;;;;;;;1.67;0.80;;;10.10;95.20;;;;;;5097603;28;20431;-44
2022/11/04 04:50:10;;;;;;;2.27;0.80;;;10.10;95.20;;;;;;5096073;28;20717;-45
2022/11/04 04:52:41;;;;;;;1.37;0.90;;;10.10;95.20;;;;;;5060232;28;20438;-44
2022/11/04 04:55:08;;;;;;;1.70;0.93;;;10.10;95.30;;;;;;5079455;28;20813;-46
2022/11/04 04:57:34;;;;;;;1.60;1.13;;;10.00;95.20;;;;;;5095606;28;20475;-43
2022/11/04 04:59:59;;;;;;;1.40;0.77;;;10.00;95.20;;;;;;5078219;28;20793;-45
2022/11/04 05:02:25;;;;;;;3.60;1.10;;;10.00;95.60;;;;;;5095949;28;20215;-46
2022/11/04 05:04:50;;;;;;;1.37;0.70;;;10.00;95.20;;;;;;5096245;28;20177;-43
2022/11/04 05:07:17;;;;;;;1.20;0.87;;;10.00;95.60;;;;;;5097402;28;20177;-45
2022/11/04 05:09:42;;;;;;;1.93;1.33;;;10.00;95.20;;;;;;5077571;28;20543;-46
2022/11/04 05:12:08;;;;;;;2.07;1.63;;;9.90;95.80;;;;;;5095952;28;20590;-45
2022/11/04 05:14:34;;;;;;;2.47;1.50;;;9.90;95.80;;;;;;5077479;28;20451;-46
2022/11/04 05:17:00;;;;;;;2.80;1.33;;;9.90;95.80;;;;;;5096805;28;20530;-44
2022/11/04 05:19:26;;;;;;;2.83;1.40;;;9.90;95.90;;;;;;5097075;28;20418;-46
2022/11/04 05:21:51;;;;;;;1.33;0.90;;;9.90;95.90;;;;;;5096668;28;20235;-46
2022/11/04 05:24:17;;;;;;;2.30;1.10;;;9.90;95.90;;;;;;5096127;28;20173;-44
2022/11/04 05:26:43;;;;;;;1.80;1.20;;;9.90;95.90;;;;;;5097086;28;20176;-43
2022/11/04 05:29:09;;;;;;;1.63;1.03;;;9.90;95.90;;;;;;5096702;28;20185;-45
2022/11/04 05:31:35;;;;;;;4.20;1.20;;;9.80;95.90;;;;;;5096140;28;20169;-45
2022/11/04 05:34:00;;;;;;;1.97;1.40;;;9.80;95.90;;;;;;5096380;28;20808;-43
2022/11/04 05:36:26;;;;;;;1.33;0.93;;;9.80;96.00;;;;;;5096499;28;20414;-45
2022/11/04 05:38:56;;;;;;;2.37;1.50;;;9.80;96.10;;;;;;5095957;28;20184;-45
2022/11/04 05:41:25;;;;;;;2.20;1.13;;;9.70;96.10;;;;;;5095991;28;20173;-45
2022/11/04 05:43:52;;;;;;;3.37;1.10;;;9.70;96.10;;;;;;5096090;28;20712;-44
2022/11/04 05:46:17;;;;;;;1.40;0.90;;;9.70;96.20;;;;;;5096521;28;20406;-45
2022/11/04 05:48:43;;;;;;;2.13;1.37;;;9.70;96.20;;;;;;5095213;28;20416;-45
2022/11/04 05:51:16;;;;;;;2.37;1.30;;;9.70;96.20;;;;;;5097131;28;20168;-46
2022/11/04 05:53:41;;;;;;;1.80;1.43;;;9.70;96.30;;;;;;5077731;28;20242;-44
2022/11/04 05:56:07;;;;;;;2.93;1.20;;;9.60;96.30;;;;;;5095963;28;20415;-46
2022/11/04 05:58:33;;;;;;;2.10;1.37;;;9.60;96.30;;;;;;5096182;28;20194;-46
2022/11/04 06:01:26;;;;;;;2.30;1.20;;;9.60;96.30;;;;;;5096342;28;20186;-45
2022/11/04 06:03:53;;;;;;;2.10;1.23;;;9.60;96.30;;;;;;5096642;28;20433;-44
2022/11/04 06:06:19;;;;;;;2.77;1.40;;;9.60;96.40;;;;;;5078126;28;20821;-45
2022/11/04 06:08:45;;;;;;;1.50;1.00;;;9.60;96.40;;;;;;5078612;28;20445;-43
2022/11/04 06:11:11;;;;;;;2.50;0.97;;;9.50;96.30;;;;;;5096498;28;20813;-43
2022/11/04 06:13:37;;;;;;;4.10;1.13;;;9.50;96.40;;;;;;5078497;28;20192;-43
2022/11/04 06:16:02;;;;;;;3.00;1.17;;;9.50;96.50;;;;;;5096688;28;20410;-45
2022/11/04 06:18:28;;;;;;;1.60;1.20;;;9.40;96.50;;;;;;5078634;28;20418;-44
2022/11/04 06:21:12;;;;;;;1.90;1.47;;;9.30;96.60;;;;;;5095757;28;20184;-44
2022/11/04 06:23:41;;;;;;;1.70;1.20;;;9.30;97.10;;;;;;5096194;28;20225;-44
2022/11/04 06:26:07;;;;;;;1.60;1.20;;;9.20;96.90;;;;;;5096090;28;20407;-45
2022/11/04 06:28:33;;;;;;;2.30;1.60;;;9.20;97.10;;;;;;5094294;28;20414;-45
2022/11/04 06:31:00;;;;;;;2.47;1.53;;;9.10;97.20;;;;;;5095455;28;20716;-43
2022/11/04 06:33:27;;;;;;;1.40;1.17;;;9.10;97.30;;;;;;5077338;28;20255;-44
2022/11/04 06:35:56;;;;;;;3.80;1.33;;;9.10;97.40;;;;;;5095357;28;20969;-44
2022/11/04 06:38:22;;;;;;;1.77;1.33;;;9.10;97.50;;;;;;5094397;28;20427;-42
2022/11/04 06:40:47;;;;;;;1.90;1.17;;;9.10;97.60;;;;;;5094858;28;20499;-46
2022/11/04 06:43:13;;;;;;;3.10;1.20;;;9.10;97.70;;;;;;5095505;28;20204;-42
2022/11/04 06:45:38;;;;;;;1.93;1.50;;;9.10;97.80;;;;;;5094865;28;20325;-42
2022/11/04 06:48:04;;;;;;;1.73;1.17;;;9.10;97.90;;;;;;5094846;28;20180;-42
2022/11/04 06:50:30;;;;;;;2.73;1.53;;;9.10;98.00;;;;;;5093764;28;20340;-42
2022/11/04 06:52:56;;;;;;;2.90;1.73;;;9.10;98.10;;;;;;5077038;28;20515;-43
2022/11/04 06:55:21;;;;;;;5.13;1.50;;;9.10;98.20;;;;;;5075561;28;20342;-45
2022/11/04 06:57:47;;;;;;;1.77;1.23;;;9.10;98.30;;;;;;5094950;28;20233;-41
2022/11/04 07:00:13;;;;;;;2.00;1.40;;;9.20;98.40;;;;;;5094063;28;20194;-43
2022/11/04 07:02:39;;;;;;;1.70;1.20;;;9.20;98.40;;;;;;5095031;28;20209;-44
2022/11/04 07:05:05;;;;;;;2.40;1.70;;;9.20;98.40;;;;;;5077576;28;20458;-41
2022/11/04 07:07:31;;;;;;;1.50;1.10;;;9.20;98.30;;;;;;5096761;28;20201;-44
2022/11/04 07:09:56;;;;;;;2.33;1.33;;;9.30;98.30;;;;;;5098400;28;21088;-43
2022/11/04 07:12:23;;;;;;;2.23;1.40;;;9.30;98.20;;;;;;5097425;28;20200;-42
2022/11/04 07:14:50;;;;;;;2.50;1.80;;;9.40;98.20;;;;;;5096524;28;20169;-43
2022/11/04 07:17:16;;;;;;;2.30;1.20;;;9.40;98.10;;;;;;5095715;28;20438;-42
2022/11/04 07:19:41;;;;;;;2.80;1.57;;;9.50;98.00;;;;;;5095375;28;20417;-43
2022/11/04 07:22:07;;;;;;;1.63;1.10;;;9.60;97.90;;;;;;5096449;28;20594;-43
2022/11/04 07:24:33;;;;;;;1.37;1.10;;;9.60;97.80;;;;;;5097795;28;20602;-44
2022/11/04 07:26:59;;;;;;;2.47;1.50;;;9.70;97.80;;;;;;5098204;28;20200;-42
2022/11/04 07:29:24;;;;;;;2.03;1.47;;;9.70;97.70;;;;;;5098217;28;20840;-46
2022/11/04 07:31:50;;;;;;;1.80;1.10;;;9.80;97.50;;;;;;5096841;28;20181;-42
2022/11/04 07:34:16;;;;;;;1.70;1.20;;;9.90;97.40;;;;;;5079867;28;20455;-43
2022/11/04 07:36:41;;;;;;;3.90;1.63;;;10.00;96.70;;;;;;5079851;28;20449;-43
2022/11/04 07:39:07;;;;;;;1.80;1.10;;;10.10;96.50;;;;;;5093873;28;20202;-42
2022/11/04 07:41:33;;;;;;;2.17;1.53;;;10.20;96.50;;;;;;5076705;28;20192;-43
2022/11/04 07:44:00;;;;;;;3.10;1.47;;;10.30;96.40;;;;;;5078601;28;20185;-46
2022/11/04 07:46:26;;;;;;;2.00;1.30;;;10.40;96.20;;;;;;5077308;28;20419;-44
2022/11/04 07:48:52;;;;;;;2.70;1.47;;;10.50;96.00;;;;;;5077513;28;20504;-42
2022/11/04 07:51:19;;;;;;;2.73;1.57;;;10.60;95.80;;;;;;5077013;28;20518;-44
2022/11/04 07:53:46;;;;;;;1.70;1.23;;;10.70;95.70;;;;;;5077621;28;20591;-42
2022/11/04 07:56:12;;;;;;;2.70;1.40;;;10.80;95.50;;;;;;5078225;28;20864;-44
2022/11/04 07:58:39;;;;;;;2.30;1.67;;;10.90;95.40;;;;;;5079034;28;20428;-45
2022/11/04 08:01:07;;;;;;;3.50;1.80;;;11.00;95.30;;;;;;5077975;28;20473;-43
2022/11/04 08:03:34;;;;;;;3.70;1.90;;;11.10;95.20;;;;;;5077430;28;20557;-44
2022/11/04 08:06:00;;;;;;;1.90;1.20;;;11.20;95.10;;;;;;5074916;28;20478;-43
2022/11/04 08:08:27;;;;;;;3.00;1.83;;;11.30;95.00;;;;;;5059743;28;20717;-42
2022/11/04 08:10:55;;;;;;;2.40;2.10;;;11.40;94.70;;;;;;5077933;28;20424;-47
2022/11/04 08:13:22;;;;;;;3.07;1.67;;;11.50;94.40;;;;;;5075212;28;20416;-43
2022/11/04 08:15:48;;;;;;;1.90;1.40;;;11.70;94.20;;;;;;5077303;28;20430;-43
2022/11/04 08:18:13;;;;;;;2.87;1.80;;;11.80;94.00;;;;;;5076226;28;20857;-45
2022/11/04 08:20:39;;;;;;;2.97;1.57;;;11.90;93.70;;;;;;5077170;28;20197;-43
2022/11/04 08:23:05;;;;;;;2.53;1.40;;;12.10;93.50;;;;;;5064732;28;20602;-43
2022/11/04 08:25:30;;;;;;;4.47;1.67;;;12.20;93.20;;;;;;5042470;28;20601;-43
2022/11/04 08:27:56;;;;;;;2.93;1.20;;;12.30;93.00;;;;;;5075865;28;20254;-48
2022/11/04 08:30:21;;;;;;;5.20;1.90;;;12.50;92.70;;;;;;5076682;28;20173;-43
2022/11/04 08:32:47;;;;;;;2.70;1.60;;;12.60;92.50;;;;;;5075655;28;20185;-46
2022/11/04 08:35:13;;;;;;;3.53;1.43;;;12.70;92.10;;;;;;5059840;28;20194;-44
2022/11/04 08:37:38;;;;;;;2.10;1.40;;;12.90;91.90;;;;;;5077027;28;20201;-46
2022/11/04 08:40:05;;;;;;;1.50;1.10;;;13.10;91.50;;;;;;5078256;28;20184;-45
2022/11/04 08:42:30;;;;;;;2.23;1.37;;;13.40;91.10;;;;;;5096642;28;20501;-43
2022/11/04 08:44:56;;;;;;;3.87;1.53;;;13.50;90.60;;;;;;5097204;28;20418;-44
2022/11/04 08:47:22;;;;;;;2.10;1.37;;;13.80;90.30;;;;;;5098138;28;20173;-44
2022/11/04 08:49:50;;;;;;;1.63;1.13;;;14.00;89.60;;;;;;5080917;28;20177;-43
2022/11/04 08:52:16;;;;;;;1.63;1.20;;;14.10;88.70;;;;;;5063890;28;20187;-45
2022/11/04 08:54:43;;;;;;;2.30;1.10;;;14.30;87.90;;;;;;5097380;28;20422;-44
2022/11/04 08:57:09;;;;;;;4.53;1.40;;;14.30;87.20;;;;;;5096848;28;20487;-45
2022/11/04 08:59:35;;;;;;;2.43;1.47;;;14.40;86.60;;;;;;5094943;28;20415;-46
2022/11/04 09:02:01;;;;;;;2.30;1.27;;;14.50;86.30;;;;;;5096035;28;20197;-44
2022/11/04 09:04:26;;;;;;;2.83;1.50;;;14.60;86.00;;;;;;5097981;28;20526;-42
2022/11/04 09:06:55;;;;;;;2.27;1.20;;;14.60;85.60;;;;;;5097671;28;20192;-47
2022/11/04 09:09:21;;;;;;;3.40;1.70;;;14.70;85.40;;;;;;5096467;28;20162;-45
2022/11/04 09:11:47;;;;;;;2.90;1.37;;;14.70;84.70;;;;;;5094319;28;20500;-45
2022/11/04 09:14:13;;;;;;;2.17;1.23;;;14.80;84.40;;;;;;5096197;28;20452;-42
2022/11/04 09:16:40;;;;;;;1.80;1.10;;;14.80;84.70;;;;;;5096514;28;20459;-42
2022/11/04 09:19:06;;;;;;;2.53;1.47;;;14.90;83.70;;;;;;5094569;28;20682;-44
2022/11/04 09:21:32;;;;;;;3.13;1.70;;;14.90;83.20;;;;;;5095857;28;20686;-42
2022/11/04 09:23:57;;;;;;;2.50;1.20;;;15.00;82.90;;;;;;5095763;28;20823;-43
2022/11/04 09:26:24;;;;;;;1.53;1.33;;;15.00;81.80;;;;;;5095491;28;20473;-42
2022/11/04 09:28:54;;;;;;;3.63;1.37;;;15.00;81.50;;;;;;5096341;28;20185;-43
2022/11/04 09:31:20;;;;;;;2.80;1.50;;;15.00;80.80;;;;;;5095547;28;20417;-43
2022/11/04 09:33:46;;;;;;;2.70;1.03;;;14.90;80.50;;;;;;5079877;28;20430;-46
2022/11/04 09:36:13;;;;;;;1.50;1.00;;;15.00;80.90;;;;;;5079678;28;20427;-45
2022/11/04 09:38:39;;;;;;;1.73;1.17;;;15.10;80.60;;;;;;5096049;28;20432;-45
2022/11/04 09:41:41;;;;;;;2.53;1.20;;;15.10;79.70;;;;;;5095981;28;20424;-43
2022/11/04 09:44:12;;;;;;;2.63;1.10;;;15.20;79.00;;;;;;5046340;28;20793;-44
2022/11/04 09:46:38;;;;;;;2.33;1.40;;;15.30;78.90;;;;;;5094872;28;20405;-44
2022/11/04 09:49:08;;;;;;;2.00;1.10;;;15.30;78.20;;;;;;5094295;28;21085;-44
2022/11/04 09:51:35;;;;;;;2.90;1.10;;;15.40;78.40;;;;;;5093834;28;20403;-44
2022/11/04 09:54:28;;;;;;;1.70;0.90;;;15.50;78.50;;;;;;5076236;28;20415;-44
2022/11/04 09:56:57;;;;;;;1.80;1.50;;;15.70;78.40;;;;;;5094163;28;20475;-46
2022/11/04 09:59:33;;;;;;;3.03;1.23;;;16.20;77.50;;;;;;5078926;28;20491;-43
2022/11/04 10:02:37;;;;;;;2.30;1.00;;;16.60;76.20;;;;;;5095048;28;20729;-46
2022/11/04 10:05:21;;;;;;;1.80;1.43;;;16.90;75.20;;;;;;5095397;28;20424;-43
2022/11/04 10:07:58;;;;;;;5.70;1.20;;;17.00;73.40;;;;;;5095709;28;20423;-43
2022/11/04 10:10:27;;;;;;;2.57;1.10;;;17.10;72.80;;;;;;5096757;28;20447;-47
2022/11/04 10:13:00;;;;;;;6.10;1.60;;;17.30;72.10;;;;;;5077898;28;20436;-45
2022/11/04 10:15:55;;;;;;;1.60;0.80;;;17.50;71.50;;;;;;5076194;28;20717;-47
2022/11/04 10:18:45;;;;;;;2.97;1.20;;;17.80;70.60;;;;;;5077226;28;20823;-49
2022/11/04 10:21:32;;;;;;;3.23;1.10;;;18.10;68.90;;;;;;5095916;28;20412;-44
2022/11/04 10:24:00;;;;;;;2.00;0.80;;;18.50;67.60;;;;;;5094976;28;20691;-44
2022/11/04 10:26:32;;;;;;;2.27;1.00;;;18.70;66.40;;;;;;5077577;28;20777;-44
2022/11/04 10:29:04;;;;;;;1.90;1.00;;;19.00;64.70;;;;;;5095025;28;20425;-44
2022/11/04 10:31:30;;;;;;;2.33;1.30;;;19.50;62.90;;;;;;5077378;28;20420;-43
2022/11/04 10:34:07;;;;;;;1.77;1.10;;;19.90;60.60;;;;;;5096460;28;20413;-45
2022/11/04 10:36:34;;;;;;;1.73;1.07;;;20.10;59.20;;;;;;5076994;28;20421;-46
2022/11/04 10:39:03;;;;;;;1.63;0.90;;;20.30;57.80;;;;;;5077621;28;20799;-47
2022/11/04 10:41:33;;;;;;;1.57;0.97;;;20.40;56.20;;;;;;5079477;28;20422;-48
2022/11/04 10:44:06;;;;;;;1.97;0.93;;;20.70;55.20;;;;;;5099552;28;20470;-45
2022/11/04 10:46:48;;;;;;;3.30;1.30;;;20.80;54.60;;;;;;5099252;28;20412;-44
2022/11/04 10:49:25;;;;;;;3.50;1.50;;;20.90;53.60;;;;;;5066031;28;20528;-46
2022/11/04 10:51:52;;;;;;;3.50;1.20;;;21.00;53.00;;;;;;5082945;28;20430;-43
2022/11/04 10:54:17;;;;;;;3.07;1.40;;;21.10;52.20;;;;;;5072361;28;20436;-45
2022/11/04 10:56:49;;;;;;;3.27;1.20;;;20.80;51.70;;;;;;5073069;28;20721;-44
2022/11/04 10:59:25;;;;;;;4.30;1.17;;;20.50;51.80;;;;;;5093509;28;20445;-45
2022/11/04 11:01:59;;;;;;;3.03;1.17;;;20.10;52.10;;;;;;5118821;28;20414;-44
2022/11/04 11:04:24;;;;;;;2.83;1.23;;;19.80;52.20;;;;;;5118300;28;20454;-46
2022/11/04 11:06:52;;;;;;;12.10;1.40;;;19.50;52.50;;;;;;5119659;28;20715;-45
2022/11/04 11:09:27;;;;;;;2.80;1.17;;;19.40;52.90;;;;;;5115628;28;20170;-45
2022/11/04 11:11:59;;;;;;;3.00;1.60;;;19.40;53.30;;;;;;5118187;28;20486;-43
2022/11/04 11:14:28;;;;;;;2.40;1.50;;;19.50;53.50;;;;;;5115859;28;20397;-44
2022/11/04 11:17:13;;;;;;;3.00;1.87;;;19.50;53.60;;;;;;5117566;28;20420;-43
2022/11/04 11:20:04;;;;;;;3.23;1.20;;;19.50;53.70;;;;;;5116886;28;20437;-44
2022/11/04 11:22:35;;;;;;;2.87;1.47;;;19.50;53.50;;;;;;5117564;28;20455;-44
2022/11/04 11:25:19;;;;;;;2.00;1.13;;;19.40;53.70;;;;;;5117180;28;20424;-45
2022/11/04 11:27:48;;;;;;;3.00;1.23;;;19.40;53.90;;;;;;5117892;28;20833;-43
2022/11/04 11:30:42;;;;;;;4.87;1.60;;;19.40;53.90;;;;;;5100728;28;20753;-44
2022/11/04 11:33:27;;;;;;;2.00;1.23;;;19.40;54.00;;;;;;5118246;28;20410;-45
2022/11/04 11:35:57;;;;;;;2.67;1.60;;;19.60;54.00;;;;;;5099879;28;20476;-48
2022/11/04 11:38:24;;;;;;;3.97;1.43;;;19.80;53.40;;;;;;5114953;28;20522;-43
2022/11/04 11:40:53;;;;;;;4.70;1.70;;;20.00;53.10;;;;;;5114230;28;20420;-47
2022/11/04 11:43:27;;;;;;;3.23;1.63;;;20.50;52.70;;;;;;5097112;28;20570;-43
2022/11/04 11:45:56;;;;;;;2.53;1.20;;;21.20;52.40;;;;;;5080318;28;20486;-45
2022/11/04 11:48:42;;;;;;;3.17;1.80;;;22.00;51.80;;;;;;5116464;28;20425;-48
2022/11/04 11:51:16;;;;;;;2.10;1.10;;;22.80;50.40;;;;;;5116799;28;20414;-46
2022/11/04 11:54:27;;;;;;;3.60;1.37;;;23.40;49.80;;;;;;5098201;28;20868;-45
2022/11/04 11:56:59;;;;;;;2.80;1.30;;;23.60;48.80;;;;;;5099257;28;20511;-45
2022/11/04 11:59:25;;;;;;;5.10;2.20;;;23.50;48.00;;;;;;5099117;28;20441;-44
2022/11/04 12:02:02;;;;;;;5.23;1.87;;;23.20;47.70;;;;;;5097833;28;20434;-44
2022/11/04 12:04:27;;;;;;;1.57;1.10;;;22.80;47.90;;;;;;5115940;28;20413;-48
2022/11/04 12:07:14;;;;;;;3.37;1.70;;;22.40;48.30;;;;;;5099345;28;20432;-45
2022/11/04 12:09:47;;;;;;;6.73;1.27;;;22.00;48.70;;;;;;5118477;28;20469;-46
2022/11/04 12:12:22;;;;;;;4.13;1.50;;;21.70;48.80;;;;;;5119157;28;20424;-45
2022/11/04 12:15:26;;;;;;;2.27;1.40;;;21.60;48.90;;;;;;5119068;28;20421;-44
2022/11/04 12:17:51;;;;;;;2.00;1.40;;;21.30;49.00;;;;;;5101791;28;20419;-46
2022/11/04 12:20:36;;;;;;;5.23;1.33;;;21.10;49.10;;;;;;5118031;28;20425;-44
2022/11/04 12:23:25;;;;;;;4.40;1.23;;;20.90;49.30;;;;;;5099997;28;20235;-43
2022/11/04 12:25:59;;;;;;;2.83;1.50;;;20.70;49.80;;;;;;5117340;28;20479;-45
2022/11/04 12:28:50;;;;;;;2.23;1.30;;;20.50;50.10;;;;;;5117934;28;20426;-44
2022/11/04 12:31:22;;;;;;;4.63;1.53;;;20.40;50.40;;;;;;5099073;28;20436;-46
2022/11/04 12:34:10;;;;;;;2.20;1.37;;;20.30;50.50;;;;;;5117135;28;20427;-45
2022/11/04 12:36:45;;;;;;;2.47;1.33;;;20.30;50.70;;;;;;5058486;28;20417;-47
2022/11/04 12:39:36;;;;;;;3.63;1.30;;;20.40;50.60;;;;;;5076110;28;20421;-43
2022/11/04 12:42:04;;;;;;;2.73;1.53;;;20.50;50.50;;;;;;5074703;28;20560;-44
2022/11/04 12:45:02;;;;;;;3.50;1.50;;;20.60;50.70;;;;;;5076361;28;20786;-46
2022/11/04 12:47:33;;;;;;;3.63;1.93;;;20.70;50.70;;;;;;5058507;28;20430;-43
2022/11/04 12:50:17;;;;;;;2.70;1.00;;;20.90;50.70;;;;;;5059675;28;20583;-45
2022/11/04 12:53:04;;;;;;;2.00;1.20;;;21.20;50.60;;;;;;5077139;28;20648;-43
2022/11/04 12:55:43;;;;;;;2.97;1.07;;;22.10;50.50;;;;;;5077769;28;20409;-42
2022/11/04 12:58:19;;;;;;;2.57;1.20;;;24.00;48.70;;;;;;5075051;28;20472;-45
2022/11/04 13:00:48;;;;;;;3.73;1.40;;;25.00;47.00;;;;;;5058046;28;20841;-45
2022/11/04 13:03:20;;;;;;;3.03;1.27;;;25.50;45.20;;;;;;5076644;28;20478;-43
2022/11/04 13:06:05;;;;;;;3.57;1.80;;;26.50;44.10;;;;;;5074799;28;20412;-45
2022/11/04 13:08:48;;;;;;;2.50;1.30;;;27.60;42.20;;;;;;5076778;28;20419;-43
2022/11/04 13:11:28;;;;;;;3.20;1.67;;;27.70;40.60;;;;;;5075972;28;20390;-42
2022/11/04 13:14:08;;;;;;;2.00;1.30;;;28.60;39.30;;;;;;5057057;28;20511;-46
2022/11/04 13:16:41;;;;;;;2.63;1.10;;;30.40;37.80;;;;;;5059014;28;20749;-44
2022/11/04 13:19:30;;;;;;;2.50;1.20;;;32.40;35.50;;;;;;5076090;28;20850;-48
2022/11/04 13:21:57;;;;;;;2.27;1.10;;;33.30;33.50;;;;;;5075337;28;20408;-44
2022/11/04 13:24:29;;;;;;;2.10;1.50;;;32.70;32.80;;;;;;5057892;28;20400;-45
2022/11/04 13:27:00;;;;;;;2.50;1.50;;;31.50;33.20;;;;;;5057538;28;20478;-45
2022/11/04 13:29:27;;;;;;;2.17;1.63;;;30.30;34.20;;;;;;5074884;28;20822;-47
2022/11/04 13:32:16;;;;;;;1.63;1.00;;;28.90;35.30;;;;;;5055698;28;20411;-48
2022/11/04 13:35:28;;;;;;;2.00;1.20;;;27.60;36.10;;;;;;5072514;28;20825;-45
2022/11/04 13:38:11;;;;;;;2.43;1.03;;;26.20;36.80;;;;;;5040479;28;20518;-47